Time;durP1;ratioP1;P1;durP2;ratioP2;P2;SDS_P1;SDS_P2;PMS_P1;PMS_P2;Temp;Humidity;BMP_temperature;BMP_pressure;BME280_temperature;BME280_humidity;BME280_pressure;Samples;Min_cycle;Max_cycle;Signal;HPM_P1;HPM_P2
2023/07/23 00:00:40;;;;;;;4.37;3.97;;;;;;;18.47;52.88;97676.69;4954003;28;20553;-79
2023/07/23 00:03:07;;;;;;;4.60;4.20;;;;;;;18.42;52.92;97677.47;4961554;28;20455;-79
2023/07/23 00:05:34;;;;;;;4.57;4.03;;;;;;;18.33;53.29;97684.50;4958861;28;20855;-79
2023/07/23 00:08:01;;;;;;;7.40;4.70;;;;;;;18.36;53.25;97681.25;4963516;28;20478;-79
2023/07/23 00:10:28;;;;;;;4.57;3.80;;;;;;;18.25;53.58;97684.13;4960437;28;20473;-79
2023/07/23 00:12:54;;;;;;;3.80;3.47;;;;;;;18.20;53.83;97682.19;4960471;28;20456;-79
2023/07/23 00:15:21;;;;;;;4.03;3.63;;;;;;;18.07;54.14;97677.97;4959116;28;20463;-79
2023/07/23 00:17:49;;;;;;;8.10;3.90;;;;;;;18.09;54.12;97678.53;4961553;28;20463;-79
2023/07/23 00:20:16;;;;;;;4.43;3.97;;;;;;;17.98;54.42;97682.25;4962426;28;20585;-79
2023/07/23 00:22:43;;;;;;;4.30;3.50;;;;;;;17.94;54.78;97683.00;4963390;28;20617;-79
2023/07/23 00:25:11;;;;;;;4.60;3.60;;;;;;;18.07;54.50;97677.97;4964921;28;20483;-79
2023/07/23 00:27:37;;;;;;;3.80;3.47;;;;;;;17.91;54.83;97676.13;4956367;28;20553;-79
2023/07/23 00:30:06;;;;;;;3.97;3.67;;;;;;;17.88;55.07;97679.38;4956659;28;20502;-79
2023/07/23 00:32:33;;;;;;;3.93;3.63;;;;;;;17.91;55.00;97687.09;4944341;28;20458;-78
2023/07/23 00:35:01;;;;;;;4.20;3.80;;;;;;;17.77;55.40;97683.13;4954838;28;20514;-77
2023/07/23 00:37:28;;;;;;;5.47;3.80;;;;;;;18.04;54.99;97683.13;4961937;28;20455;-79
2023/07/23 00:39:55;;;;;;;5.30;4.03;;;;;;;17.85;55.12;97677.19;4966346;28;20562;-79
2023/07/23 00:42:21;;;;;;;4.63;4.23;;;;;;;17.87;54.98;97680.47;4964003;28;20534;-79
2023/07/23 00:44:48;;;;;;;6.20;3.60;;;;;;;17.92;54.75;97675.06;4962641;28;20467;-79
2023/07/23 00:47:15;;;;;;;3.73;3.43;;;;;;;17.88;54.75;97679.38;4963898;28;20481;-79
2023/07/23 00:49:42;;;;;;;4.10;3.80;;;;;;;17.91;54.56;97678.06;4963535;28;20549;-79
2023/07/23 00:52:10;;;;;;;3.40;3.10;;;;;;;17.94;54.52;97678.38;4964159;28;20952;-79
2023/07/23 00:54:37;;;;;;;3.53;3.23;;;;;;;18.01;53.91;97673.50;4958353;28;20534;-79
2023/07/23 00:57:05;;;;;;;3.33;3.03;;;;;;;18.11;53.67;97667.31;4957386;28;21066;-80
2023/07/23 00:59:32;;;;;;;3.60;3.30;;;;;;;18.11;53.38;97673.63;4962764;28;20485;-79
2023/07/23 01:01:59;;;;;;;3.20;3.00;;;;;;;18.08;53.66;97671.41;4955985;28;20455;-80
2023/07/23 01:04:26;;;;;;;6.90;3.10;;;;;;;17.97;53.79;97672.38;4957160;28;20491;-80
2023/07/23 01:06:54;;;;;;;4.50;3.63;;;;;;;18.02;53.89;97677.09;4953299;28;21601;-78
2023/07/23 01:09:23;;;;;;;3.13;2.93;;;;;;;18.07;53.80;97667.00;4959990;28;21041;-79
2023/07/23 01:11:51;;;;;;;3.20;3.00;;;;;;;18.08;53.49;97667.84;4953909;28;20539;-79
2023/07/23 01:14:18;;;;;;;3.70;3.07;;;;;;;18.09;53.20;97656.63;4953599;28;20497;-80
2023/07/23 01:16:45;;;;;;;3.07;2.87;;;;;;;18.04;53.51;97662.03;4955540;28;20523;-80
2023/07/23 01:19:13;;;;;;;3.13;2.93;;;;;;;18.16;53.16;97661.91;4953589;28;20484;-80
2023/07/23 01:21:40;;;;;;;3.53;3.23;;;;;;;18.19;52.93;97663.28;4960991;28;20943;-79
2023/07/23 01:24:08;;;;;;;3.00;2.73;;;;;;;18.27;52.71;97657.31;4953430;28;20460;-79
2023/07/23 01:26:35;;;;;;;3.17;2.87;;;;;;;18.10;53.12;97665.66;4954652;28;20503;-79
2023/07/23 01:29:02;;;;;;;3.77;3.10;;;;;;;18.10;53.25;97654.72;4953094;28;20852;-79
2023/07/23 01:31:28;;;;;;;3.07;2.83;;;;;;;17.99;53.27;97653.78;4953337;28;20455;-79
2023/07/23 01:33:55;;;;;;;3.37;3.07;;;;;;;17.96;53.60;97650.72;4953231;28;20460;-79
2023/07/23 01:36:22;;;;;;;2.87;2.63;;;;;;;17.83;54.03;97648.41;4959585;28;20447;-79
2023/07/23 01:38:49;;;;;;;3.27;2.97;;;;;;;17.82;54.00;97644.84;4956521;28;20486;-79
2023/07/23 01:41:17;;;;;;;3.37;3.00;;;;;;;17.68;54.48;97651.81;4958213;28;20451;-79
2023/07/23 01:43:44;;;;;;;3.37;3.07;;;;;;;17.72;54.32;97640.09;4953243;28;20519;-80
2023/07/23 01:46:11;;;;;;;3.10;2.80;;;;;;;17.83;54.02;97637.47;4964994;28;20896;-79
2023/07/23 01:48:38;;;;;;;4.43;3.30;;;;;;;17.65;54.55;97634.00;4953949;28;20478;-79
2023/07/23 01:51:05;;;;;;;3.23;3.03;;;;;;;17.52;54.98;97644.50;4953653;28;20563;-79
2023/07/23 01:53:32;;;;;;;3.50;3.10;;;;;;;17.48;55.16;97635.97;4958341;28;21010;-79
2023/07/23 01:55:59;;;;;;;3.60;3.30;;;;;;;17.52;55.15;97636.28;4956311;28;20464;-79
2023/07/23 01:58:27;;;;;;;2.90;2.57;;;;;;;17.44;55.45;97637.56;4951846;28;20487;-79
2023/07/23 02:00:58;;;;;;;2.70;2.50;;;;;;;17.56;55.05;97634.66;4958078;28;20451;-79
2023/07/23 02:03:24;;;;;;;2.80;2.60;;;;;;;17.62;54.67;97636.38;4961439;28;20518;-79
2023/07/23 02:05:56;;;;;;;3.33;3.03;;;;;;;17.42;55.28;97637.81;4956169;28;20487;-79
2023/07/23 02:08:23;;;;;;;3.00;2.73;;;;;;;17.43;55.21;97639.47;4953741;28;20509;-79
2023/07/23 02:10:49;;;;;;;3.10;2.80;;;;;;;17.37;55.35;97634.19;4958869;28;20444;-79
2023/07/23 02:13:16;;;;;;;3.17;2.73;;;;;;;17.34;55.75;97643.72;4963370;28;20478;-79
2023/07/23 02:15:44;;;;;;;3.30;3.00;;;;;;;17.37;55.72;97635.00;4964633;28;20459;-79
2023/07/23 02:18:11;;;;;;;3.30;3.00;;;;;;;17.44;55.13;97634.81;4962392;28;20507;-79
2023/07/23 02:20:38;;;;;;;3.10;2.80;;;;;;;17.39;55.33;97632.84;4960654;28;20546;-80
2023/07/23 02:23:04;;;;;;;3.20;2.90;;;;;;;17.38;55.54;97631.19;4958286;28;20558;-80
2023/07/23 02:25:37;;;;;;;4.43;2.80;;;;;;;17.30;55.44;97636.28;4955787;28;20483;-79
2023/07/23 02:28:05;;;;;;;3.27;2.97;;;;;;;17.31;55.54;97641.50;4960547;28;20573;-79
2023/07/23 02:30:31;;;;;;;3.37;2.73;;;;;;;17.29;55.64;97635.47;4961356;28;20543;-79
2023/07/23 02:32:59;;;;;;;3.30;3.00;;;;;;;17.26;55.62;97646.91;4955408;28;20884;-79
2023/07/23 02:35:26;;;;;;;4.33;2.67;;;;;;;17.37;55.65;97639.66;4962705;28;20491;-79
2023/07/23 02:37:54;;;;;;;3.50;3.10;;;;;;;17.23;55.77;97641.94;4966929;28;21011;-79
2023/07/23 02:40:21;;;;;;;3.00;2.77;;;;;;;17.32;55.64;97640.41;4957463;28;20456;-79
2023/07/23 02:42:49;;;;;;;4.37;2.90;;;;;;;17.20;55.79;97639.75;4956088;28;20471;-79
2023/07/23 02:45:15;;;;;;;2.80;2.60;;;;;;;17.20;55.71;97649.84;4957988;28;20483;-79
2023/07/23 02:47:42;;;;;;;3.87;3.17;;;;;;;17.39;55.49;97649.28;4952491;28;20675;-80
2023/07/23 02:50:11;;;;;;;3.07;2.80;;;;;;;17.25;55.46;97647.97;4958119;28;20985;-79
2023/07/23 02:52:37;;;;;;;3.03;2.73;;;;;;;17.17;55.79;97645.72;4952508;28;20808;-79
2023/07/23 02:55:05;;;;;;;3.03;2.73;;;;;;;17.19;56.10;97649.03;4954747;28;20543;-80
2023/07/23 02:57:32;;;;;;;3.47;2.80;;;;;;;17.09;56.22;97646.16;4953617;28;20827;-80
2023/07/23 02:59:58;;;;;;;3.60;3.17;;;;;;;17.12;56.30;97653.84;4953016;28;20483;-80
2023/07/23 03:02:25;;;;;;;2.97;2.70;;;;;;;17.20;55.85;97655.31;4953903;28;20456;-79
2023/07/23 03:04:52;;;;;;;3.33;2.70;;;;;;;17.21;55.82;97652.34;4956874;28;20663;-79
2023/07/23 03:07:20;;;;;;;2.87;2.60;;;;;;;17.30;55.63;97642.59;4954456;28;20588;-80
2023/07/23 03:09:47;;;;;;;3.20;2.90;;;;;;;17.38;55.45;97653.09;4951281;28;21057;-79
2023/07/23 03:12:14;;;;;;;3.37;2.83;;;;;;;17.26;55.58;97655.13;4951410;28;20574;-79
2023/07/23 03:14:40;;;;;;;3.10;2.90;;;;;;;17.09;55.96;97648.88;4951868;28;21039;-79
2023/07/23 03:17:07;;;;;;;3.30;3.00;;;;;;;17.23;55.59;97654.78;4953623;28;20986;-79
2023/07/23 03:19:34;;;;;;;3.00;2.70;;;;;;;17.17;55.75;97650.34;4952447;28;20585;-79
2023/07/23 03:22:01;;;;;;;2.63;2.30;;;;;;;17.38;55.38;97647.63;4949447;28;20538;-80
2023/07/23 03:24:29;;;;;;;3.23;2.93;;;;;;;17.22;55.70;97648.50;4951351;28;20455;-80
2023/07/23 03:26:56;;;;;;;2.90;2.70;;;;;;;17.31;55.19;97652.44;4956381;28;20573;-80
2023/07/23 03:29:23;;;;;;;2.90;2.70;;;;;;;17.20;55.53;97658.06;4954495;28;20984;-80
2023/07/23 03:31:50;;;;;;;2.90;2.63;;;;;;;17.07;55.87;97653.78;4950708;28;20526;-80
2023/07/23 03:34:17;;;;;;;4.20;2.90;;;;;;;17.27;55.52;97658.66;4954742;28;20487;-80
2023/07/23 03:36:43;;;;;;;3.10;2.80;;;;;;;17.28;55.39;97654.84;4952571;28;20526;-80
2023/07/23 03:39:14;;;;;;;4.00;2.70;;;;;;;17.26;55.35;97657.84;4956079;28;20834;-79
2023/07/23 03:41:42;;;;;;;3.30;2.50;;;;;;;17.28;55.60;97658.41;4956517;28;20563;-80
2023/07/23 03:44:09;;;;;;;3.40;3.10;;;;;;;17.18;55.63;97657.50;4965623;28;20490;-80
2023/07/23 03:46:44;;;;;;;2.90;2.70;;;;;;;17.22;55.63;97656.69;4961954;28;20491;-80
2023/07/23 03:49:11;;;;;;;3.00;2.70;;;;;;;17.20;55.42;97652.59;4965306;28;20483;-80
2023/07/23 03:51:38;;;;;;;2.60;2.40;;;;;;;17.20;55.29;97650.69;4965428;28;20819;-80
2023/07/23 03:54:05;;;;;;;3.00;2.60;;;;;;;17.19;55.58;97649.03;4963598;28;20530;-80
2023/07/23 03:56:32;;;;;;;2.83;2.50;;;;;;;17.13;55.54;97650.03;4963812;28;20885;-79
2023/07/23 03:59:00;;;;;;;2.90;2.70;;;;;;;17.30;55.34;97655.44;4957751;28;20475;-80
2023/07/23 04:01:27;;;;;;;3.17;2.87;;;;;;;17.23;55.27;97663.81;4955727;28;21015;-80
2023/07/23 04:03:54;;;;;;;3.10;2.80;;;;;;;17.30;55.23;97661.72;4960248;28;20459;-80
2023/07/23 04:06:20;;;;;;;3.07;2.87;;;;;;;17.28;55.14;97654.84;4958738;28;20534;-80
2023/07/23 04:08:47;;;;;;;3.80;2.57;;;;;;;17.37;55.08;97654.16;4958270;28;20479;-80
2023/07/23 04:11:14;;;;;;;2.80;2.60;;;;;;;17.41;54.94;97657.22;4955874;28;20869;-80
2023/07/23 04:13:41;;;;;;;2.70;2.50;;;;;;;17.62;54.21;97661.84;4956375;28;20454;-80
2023/07/23 04:16:10;;;;;;;2.90;2.67;;;;;;;17.69;53.82;97664.41;4958419;28;21007;-80
2023/07/23 04:18:47;;;;;;;2.87;2.60;;;;;;;17.74;53.54;97667.22;4958707;28;20521;-80
2023/07/23 04:21:14;;;;;;;2.63;2.43;;;;;;;17.86;53.46;97665.16;4956954;28;20470;-81
2023/07/23 04:23:41;;;;;;;2.87;2.27;;;;;;;17.88;53.43;97675.81;4957898;28;20463;-80
2023/07/23 04:26:08;;;;;;;3.60;3.30;;;;;;;17.92;53.17;97664.09;4961535;28;20550;-80
2023/07/23 04:28:34;;;;;;;3.27;2.97;;;;;;;18.03;52.77;97663.13;4960113;28;20595;-80
2023/07/23 04:31:01;;;;;;;3.07;2.87;;;;;;;18.07;52.87;97656.06;4960770;28;20502;-80
2023/07/23 04:33:29;;;;;;;3.03;2.83;;;;;;;18.09;52.81;97664.84;4955580;28;20601;-80
2023/07/23 04:35:56;;;;;;;2.83;2.63;;;;;;;18.26;52.73;97663.88;4958950;28;21134;-80
2023/07/23 04:38:23;;;;;;;2.50;2.30;;;;;;;18.30;52.82;97665.00;4959693;28;20471;-80
2023/07/23 04:40:50;;;;;;;2.80;2.60;;;;;;;18.26;52.68;97669.34;4958014;28;20460;-80
2023/07/23 04:43:16;;;;;;;3.03;2.73;;;;;;;18.27;52.97;97666.34;4958030;28;20451;-80
2023/07/23 04:45:43;;;;;;;2.53;2.33;;;;;;;18.34;52.60;97668.88;4957256;28;20464;-80
2023/07/23 04:48:11;;;;;;;2.87;2.67;;;;;;;18.37;52.39;97673.84;4959043;28;20574;-79
2023/07/23 04:50:39;;;;;;;3.80;2.40;;;;;;;18.65;51.92;97672.72;4958647;28;20549;-79
2023/07/23 04:53:06;;;;;;;2.70;2.50;;;;;;;18.76;51.72;97668.97;4956899;28;20784;-79
2023/07/23 04:55:33;;;;;;;3.03;2.47;;;;;;;18.68;51.59;97675.78;4957134;28;20470;-80
2023/07/23 04:58:00;;;;;;;3.27;2.43;;;;;;;18.79;51.33;97668.44;4956917;28;20872;-80
2023/07/23 05:00:28;;;;;;;3.40;3.00;;;;;;;18.77;51.99;97665.16;4955866;28;20574;-79
2023/07/23 05:02:54;;;;;;;4.87;2.80;;;;;;;18.89;51.60;97673.97;4955284;28;20460;-79
2023/07/23 05:05:21;;;;;;;2.53;2.33;;;;;;;18.92;51.41;97672.63;4958670;28;20463;-79
2023/07/23 05:07:49;;;;;;;2.43;2.23;;;;;;;19.04;51.39;97676.00;4959118;28;21235;-80
2023/07/23 05:10:16;;;;;;;2.63;2.43;;;;;;;19.11;51.10;97674.69;4958953;28;20542;-79
2023/07/23 05:12:43;;;;;;;2.93;2.63;;;;;;;19.35;50.90;97674.25;4961315;28;20474;-79
2023/07/23 05:15:11;;;;;;;2.50;2.30;;;;;;;19.39;50.62;97678.94;4967206;28;20529;-80
2023/07/23 05:17:38;;;;;;;2.77;2.57;;;;;;;19.50;50.47;97673.47;4967746;28;20483;-80
2023/07/23 05:20:07;;;;;;;2.90;2.60;;;;;;;19.47;50.43;97672.13;4965394;28;20600;-79
2023/07/23 05:22:33;;;;;;;3.10;2.80;;;;;;;19.59;50.04;97669.16;4965287;28;20460;-80
2023/07/23 05:25:03;;;;;;;3.20;2.90;;;;;;;19.57;49.60;97672.16;4963882;28;20455;-79
2023/07/23 05:27:30;;;;;;;2.70;2.50;;;;;;;19.80;49.16;97673.63;4962341;28;20476;-79
2023/07/23 05:29:57;;;;;;;2.37;2.17;;;;;;;19.76;49.10;97675.28;4963419;28;20528;-80
2023/07/23 05:32:23;;;;;;;3.00;2.70;;;;;;;19.67;49.27;97674.13;4964630;28;20456;-80
2023/07/23 05:34:51;;;;;;;3.83;2.70;;;;;;;19.91;48.85;97672.53;4963121;28;20548;-79
2023/07/23 05:37:17;;;;;;;2.83;2.63;;;;;;;20.03;48.39;97677.81;4961314;28;20491;-80
2023/07/23 05:39:44;;;;;;;3.13;2.57;;;;;;;20.03;48.61;97673.13;4960500;28;20567;-79
2023/07/23 05:42:12;;;;;;;2.40;2.20;;;;;;;20.09;48.09;97680.28;4961726;28;20551;-80
2023/07/23 05:44:39;;;;;;;3.07;2.80;;;;;;;20.11;47.83;97672.59;4961383;28;20550;-80
2023/07/23 05:47:06;;;;;;;2.30;2.10;;;;;;;20.24;47.54;97675.91;4962087;28;20478;-78
2023/07/23 05:49:33;;;;;;;2.80;2.60;;;;;;;20.47;47.42;97677.34;4960929;28;20479;-79
2023/07/23 05:52:00;;;;;;;2.77;2.57;;;;;;;20.52;47.16;97669.88;4962586;28;20539;-79
2023/07/23 05:54:27;;;;;;;2.80;2.53;;;;;;;20.64;47.15;97672.38;4964302;28;20459;-79
2023/07/23 05:56:54;;;;;;;3.07;2.87;;;;;;;20.67;46.69;97678.16;4962614;28;20562;-80
2023/07/23 05:59:22;;;;;;;2.83;2.47;;;;;;;20.85;47.07;97673.16;4961695;28;20481;-80
2023/07/23 06:01:50;;;;;;;3.50;2.53;;;;;;;20.99;46.46;97677.84;4958974;28;20490;-79
2023/07/23 06:04:17;;;;;;;2.67;2.47;;;;;;;21.11;45.83;97677.53;4960853;28;20889;-80
2023/07/23 06:06:43;;;;;;;2.73;2.50;;;;;;;21.23;45.62;97678.06;4962779;28;20480;-80
2023/07/23 06:09:11;;;;;;;2.90;2.60;;;;;;;21.08;45.75;97680.84;4962190;28;20984;-79
2023/07/23 06:11:38;;;;;;;2.60;2.40;;;;;;;21.24;44.69;97674.22;4962760;28;20466;-79
2023/07/23 06:14:06;;;;;;;2.73;2.23;;;;;;;21.38;44.64;97671.72;4961912;28;20451;-80
2023/07/23 06:16:34;;;;;;;2.83;2.37;;;;;;;21.78;44.13;97676.19;4959850;28;20466;-78
2023/07/23 06:19:02;;;;;;;3.53;2.90;;;;;;;22.00;43.71;97679.41;4958451;28;20575;-79
2023/07/23 06:21:29;;;;;;;2.73;2.53;;;;;;;21.91;43.58;97686.63;4960295;28;20852;-77
2023/07/23 06:23:55;;;;;;;2.90;2.60;;;;;;;22.10;43.31;97681.28;4959484;28;20832;-78
2023/07/23 06:26:22;;;;;;;2.83;2.63;;;;;;;22.05;42.78;97678.59;4958582;28;20467;-78
2023/07/23 06:28:49;;;;;;;2.73;2.53;;;;;;;22.08;42.22;97684.34;4961000;28;20963;-78
2023/07/23 06:31:16;;;;;;;2.83;2.57;;;;;;;21.98;42.50;97673.34;4961961;28;20824;-78
2023/07/23 06:33:44;;;;;;;2.83;2.50;;;;;;;22.17;42.58;97679.03;4958608;28;20466;-77
2023/07/23 06:36:11;;;;;;;2.90;2.70;;;;;;;22.20;42.31;97672.13;4958025;28;20874;-78
2023/07/23 06:38:38;;;;;;;2.60;2.43;;;;;;;22.21;42.64;97679.28;4961067;28;20532;-78
2023/07/23 06:41:05;;;;;;;4.33;2.57;;;;;;;22.54;42.08;97675.75;4957293;28;20495;-78
2023/07/23 06:43:33;;;;;;;2.90;2.70;;;;;;;22.69;41.99;97675.63;4957016;28;20854;-78
2023/07/23 06:46:00;;;;;;;3.07;2.77;;;;;;;22.70;41.03;97676.44;4963163;28;20534;-78
2023/07/23 06:48:28;;;;;;;2.87;2.67;;;;;;;22.62;40.18;97675.13;4969664;28;20496;-78
2023/07/23 06:50:58;;;;;;;3.13;2.83;;;;;;;22.66;40.08;97667.91;4963372;28;20483;-78
2023/07/23 06:53:25;;;;;;;2.83;2.53;;;;;;;22.82;40.37;97678.84;4961391;28;20501;-78
2023/07/23 06:56:00;;;;;;;3.47;2.73;;;;;;;22.70;40.08;97682.78;4957795;28;20467;-77
2023/07/23 06:58:28;;;;;;;2.63;2.43;;;;;;;22.63;40.61;97674.00;4959705;28;20473;-78
2023/07/23 07:00:55;;;;;;;2.93;2.63;;;;;;;22.99;39.72;97674.53;4957754;28;20971;-78
2023/07/23 07:03:22;;;;;;;3.30;3.00;;;;;;;23.34;40.05;97678.03;4956141;28;21027;-78
2023/07/23 07:05:48;;;;;;;2.67;2.47;;;;;;;23.35;39.90;97677.75;4957416;28;20541;-78
2023/07/23 07:08:17;;;;;;;2.97;2.77;;;;;;;23.55;39.28;97673.13;4960405;28;20500;-78
2023/07/23 07:10:43;;;;;;;2.97;2.77;;;;;;;23.79;39.37;97676.69;4954153;28;20470;-79
2023/07/23 07:13:10;;;;;;;2.67;2.47;;;;;;;23.40;39.52;97677.66;4958809;28;20979;-77
2023/07/23 07:15:37;;;;;;;2.90;2.70;;;;;;;23.47;39.02;97677.31;4954744;28;20491;-77
2023/07/23 07:18:04;;;;;;;2.20;2.07;;;;;;;22.75;40.41;97679.97;4951611;28;20475;-76
2023/07/23 07:20:31;;;;;;;2.67;2.47;;;;;;;22.96;41.03;97677.88;4953393;28;20543;-80
2023/07/23 07:22:58;;;;;;;3.20;2.90;;;;;;;22.93;40.88;97683.16;4959114;28;20883;-76
2023/07/23 07:25:26;;;;;;;3.00;2.80;;;;;;;22.83;40.30;97681.31;4956577;28;20975;-77
2023/07/23 07:27:52;;;;;;;3.30;3.00;;;;;;;22.97;40.50;97675.94;4955694;28;20522;-77
2023/07/23 07:30:19;;;;;;;2.83;2.57;;;;;;;23.60;39.44;97670.31;4955356;28;20494;-77
2023/07/23 07:32:46;;;;;;;3.10;2.77;;;;;;;23.64;39.43;97663.06;4950872;28;20490;-78
2023/07/23 07:35:13;;;;;;;3.20;2.87;;;;;;;24.20;38.57;97673.34;4958028;28;20462;-78
2023/07/23 07:37:40;;;;;;;2.90;2.70;;;;;;;24.03;39.02;97671.13;4952092;28;20566;-78
2023/07/23 07:40:09;;;;;;;2.63;2.43;;;;;;;24.40;37.75;97670.28;4954091;28;20467;-77
2023/07/23 07:42:37;;;;;;;3.20;2.90;;;;;;;23.96;37.50;97671.47;4954253;28;20463;-78
2023/07/23 07:45:05;;;;;;;3.07;2.77;;;;;;;24.03;37.68;97669.19;4964538;28;20467;-78
2023/07/23 07:47:32;;;;;;;3.33;2.63;;;;;;;24.06;37.53;97668.56;4955589;28;20490;-77
2023/07/23 07:49:58;;;;;;;2.77;2.57;;;;;;;24.92;36.30;97666.38;4958365;28;20454;-78
2023/07/23 07:52:25;;;;;;;3.77;2.90;;;;;;;24.66;36.02;97671.56;4957423;28;21052;-76
2023/07/23 07:54:52;;;;;;;3.60;3.30;;;;;;;24.30;36.99;97670.47;4951306;28;20483;-77
2023/07/23 07:57:20;;;;;;;2.63;2.43;;;;;;;24.60;37.01;97664.44;4952628;28;20921;-78
2023/07/23 07:59:49;;;;;;;2.67;2.47;;;;;;;24.22;37.40;97669.16;4952825;28;20481;-77
2023/07/23 08:02:16;;;;;;;2.40;2.23;;;;;;;24.41;37.49;97674.69;4954050;28;20888;-76
2023/07/23 08:04:43;;;;;;;3.07;2.87;;;;;;;24.03;37.86;97666.41;4950097;28;20490;-77
2023/07/23 08:07:11;;;;;;;2.37;2.17;;;;;;;24.35;37.56;97657.38;4956219;28;20467;-77
2023/07/23 08:09:40;;;;;;;2.70;2.50;;;;;;;24.32;38.11;97668.22;4947067;28;21412;-77
2023/07/23 08:12:08;;;;;;;2.90;2.70;;;;;;;24.48;37.97;97669.63;4950138;28;20475;-78
2023/07/23 08:14:36;;;;;;;2.67;2.47;;;;;;;24.68;37.17;97666.53;4953018;28;20592;-78
2023/07/23 08:17:05;;;;;;;2.80;2.60;;;;;;;25.07;36.45;97673.59;4956503;28;20454;-77
2023/07/23 08:19:32;;;;;;;2.50;2.30;;;;;;;24.64;36.80;97664.66;4967194;28;20478;-77
2023/07/23 08:22:01;;;;;;;2.57;2.30;;;;;;;25.00;36.35;97671.25;4959196;28;20493;-77
2023/07/23 08:24:28;;;;;;;2.60;2.40;;;;;;;25.05;36.46;97679.47;4961301;28;20479;-77
2023/07/23 08:26:56;;;;;;;2.50;2.30;;;;;;;25.08;36.50;97666.94;4961064;28;20558;-77
2023/07/23 08:29:25;;;;;;;2.63;2.43;;;;;;;25.33;36.23;97666.50;4964381;28;20848;-78
2023/07/23 08:31:53;;;;;;;2.80;2.60;;;;;;;25.29;36.18;97673.78;4964425;28;20474;-78
2023/07/23 08:34:22;;;;;;;2.63;2.43;;;;;;;25.52;35.47;97671.09;4958216;28;20529;-78
2023/07/23 08:36:50;;;;;;;3.07;2.27;;;;;;;24.55;36.96;97686.66;4958948;28;20460;-77
2023/07/23 08:39:17;;;;;;;2.40;2.20;;;;;;;25.13;35.95;97683.47;4960192;28;20558;-78
2023/07/23 08:41:56;;;;;;;2.60;2.40;;;;;;;24.78;36.68;97677.41;4956335;28;20461;-78
2023/07/23 08:44:46;;;;;;;2.40;2.30;;;;;;;25.34;35.61;97679.19;4951063;28;22153;-78
2023/07/23 08:47:14;;;;;;;2.60;2.40;;;;;;;25.01;36.48;97674.84;4955500;28;20459;-77
2023/07/23 08:49:43;;;;;;;2.57;2.37;;;;;;;25.14;36.95;97668.50;4959725;28;21001;-78
2023/07/23 08:52:11;;;;;;;3.67;2.60;;;;;;;25.36;35.96;97673.34;4956720;28;21289;-78
2023/07/23 08:54:38;;;;;;;2.07;1.97;;;;;;;25.01;36.54;97677.63;4954229;28;20533;-78
2023/07/23 08:57:06;;;;;;;2.73;2.53;;;;;;;24.77;37.24;97673.00;4957912;28;21140;-78
2023/07/23 08:59:33;;;;;;;2.47;2.27;;;;;;;24.68;37.40;97672.06;4957393;28;20492;-79
2023/07/23 09:02:01;;;;;;;2.40;2.20;;;;;;;25.81;35.28;97674.41;4958220;28;20511;-79
2023/07/23 09:04:28;;;;;;;2.33;2.13;;;;;;;26.51;34.03;97668.38;4953196;28;20455;-79
2023/07/23 09:06:58;;;;;;;2.20;2.10;;;;;;;25.84;34.63;97675.72;4953026;28;20463;-79
2023/07/23 09:09:26;;;;;;;2.17;2.07;;;;;;;25.48;34.96;97683.94;4956536;28;20550;-79
2023/07/23 09:11:54;;;;;;;2.10;2.00;;;;;;;25.45;36.03;97682.59;4956023;28;20455;-80
2023/07/23 09:14:20;;;;;;;2.13;2.03;;;;;;;25.24;35.78;97676.63;4955397;28;20548;-80
2023/07/23 09:16:49;;;;;;;2.90;2.13;;;;;;;25.00;36.01;97687.06;4954627;28;21046;-79
2023/07/23 09:19:22;;;;;;;2.00;1.90;;;;;;;25.06;35.47;97681.09;4957792;28;20561;-79
2023/07/23 09:21:49;;;;;;;1.97;1.87;;;;;;;24.96;35.94;97675.75;4957471;28;20903;-79
2023/07/23 09:24:18;;;;;;;1.90;1.80;;;;;;;25.35;35.74;97678.06;4954756;28;20492;-79
2023/07/23 09:26:46;;;;;;;1.63;1.53;;;;;;;25.16;35.65;97676.50;4957827;28;20462;-79
2023/07/23 09:29:13;;;;;;;2.40;2.20;;;;;;;25.24;35.47;97664.72;4953831;28;20495;-78
2023/07/23 09:31:44;;;;;;;1.83;1.73;;;;;;;25.79;34.58;97668.34;4952497;28;20458;-78
2023/07/23 09:34:11;;;;;;;1.67;1.57;;;;;;;25.61;34.76;97677.56;4955642;28;20470;-79
2023/07/23 09:36:39;;;;;;;2.13;1.93;;;;;;;25.43;35.45;97666.25;4959549;28;20541;-82
2023/07/23 09:39:07;;;;;;;1.60;1.50;;;;;;;25.47;35.54;97668.44;4949535;28;20486;-80
2023/07/23 09:41:36;;;;;;;2.13;1.93;;;;;;;25.16;35.90;97663.47;4949642;28;20959;-78
2023/07/23 09:44:06;;;;;;;2.00;1.90;;;;;;;25.25;35.72;97664.41;4949248;28;20634;-78
2023/07/23 09:46:33;;;;;;;2.07;1.97;;;;;;;25.39;34.63;97647.78;4951508;28;20487;-78
2023/07/23 09:49:00;;;;;;;2.00;1.80;;;;;;;25.32;34.61;97648.22;4956722;28;20555;-79
2023/07/23 09:51:27;;;;;;;2.37;2.17;;;;;;;25.93;33.39;97660.00;4966932;28;20466;-78
2023/07/23 09:54:00;;;;;;;2.10;2.00;;;;;;;25.98;32.88;97665.44;4959870;28;20491;-79
2023/07/23 09:56:28;;;;;;;1.93;1.83;;;;;;;25.74;32.88;97660.13;4956643;28;20558;-78
2023/07/23 09:58:58;;;;;;;2.20;2.10;;;;;;;26.04;32.11;97662.22;4961301;28;20488;-79
2023/07/23 10:01:25;;;;;;;2.10;1.90;;;;;;;26.93;31.45;97652.34;4959993;28;20474;-79
2023/07/23 10:03:53;;;;;;;1.77;1.67;;;;;;;26.19;33.09;97651.94;4956793;28;20464;-78
2023/07/23 10:06:23;;;;;;;2.07;1.87;;;;;;;26.82;31.89;97656.53;4958288;28;20743;-77
2023/07/23 10:08:50;;;;;;;3.53;2.30;;;;;;;26.59;32.30;97650.97;4928330;28;20695;-77
2023/07/23 10:11:19;;;;;;;3.70;2.50;;;;;;;26.43;32.50;97660.81;4935875;28;20467;-80
2023/07/23 10:13:47;;;;;;;2.30;2.10;;;;;;;27.05;31.85;97645.06;4953899;28;20502;-82
2023/07/23 10:16:19;;;;;;;1.90;1.80;;;;;;;27.79;30.26;97641.63;4949939;28;20462;-82
2023/07/23 10:18:46;;;;;;;2.20;2.00;;;;;;;26.96;31.85;97646.19;4954099;28;20913;-81
2023/07/23 10:21:13;;;;;;;2.30;2.20;;;;;;;26.79;31.98;97635.75;4955229;28;20993;-80
2023/07/23 10:23:41;;;;;;;2.30;2.10;;;;;;;26.73;32.41;97635.06;4957092;28;20816;-79
2023/07/23 10:26:21;;;;;;;2.43;2.23;;;;;;;26.51;32.70;97632.31;4955820;28;20494;-80
2023/07/23 10:28:49;;;;;;;2.33;2.13;;;;;;;26.49;32.34;97633.75;4955763;28;20542;-80
2023/07/23 10:31:22;;;;;;;2.50;1.93;;;;;;;27.40;30.76;97623.81;4956541;28;20558;-81
2023/07/23 10:33:50;;;;;;;2.40;2.20;;;;;;;28.70;28.76;97633.19;4953051;28;20472;-80
2023/07/23 10:36:19;;;;;;;2.17;2.03;;;;;;;27.15;30.79;97627.31;4958471;28;20583;-81
2023/07/23 10:38:46;;;;;;;2.50;2.30;;;;;;;26.03;32.71;97629.25;4951581;28;20566;-81
2023/07/23 10:41:13;;;;;;;3.33;2.37;;;;;;;26.78;31.64;97614.66;4949524;28;20967;-80
2023/07/23 10:43:43;;;;;;;2.60;2.40;;;;;;;27.53;30.02;97612.91;4956001;28;20475;-75
2023/07/23 10:46:11;;;;;;;2.57;2.37;;;;;;;26.13;32.32;97625.44;4949216;28;20460;-81
2023/07/23 10:48:40;;;;;;;2.40;2.27;;;;;;;26.51;32.16;97610.09;4951793;28;20490;-81
2023/07/23 10:51:08;;;;;;;2.10;2.00;;;;;;;27.63;30.59;97610.66;4955194;28;20458;-83
2023/07/23 10:53:38;;;;;;;2.53;2.33;;;;;;;27.99;29.87;97593.69;4959702;28;20999;-81
2023/07/23 10:56:22;;;;;;;2.70;2.50;;;;;;;27.21;30.66;97601.03;4958573;28;20455;-82
2023/07/23 10:58:49;;;;;;;2.90;2.70;;;;;;;27.67;30.16;97577.47;4950063;28;20533;-83
2023/07/23 11:01:21;;;;;;;2.57;2.37;;;;;;;27.61;30.45;97595.47;4950830;28;20466;-81
2023/07/23 11:03:50;;;;;;;2.60;2.40;;;;;;;28.03;29.82;97585.53;4951092;28;21203;-82
2023/07/23 11:06:28;;;;;;;2.10;2.00;;;;;;;28.27;29.59;97607.31;4950883;28;20497;-83
2023/07/23 11:08:57;;;;;;;3.07;2.87;;;;;;;28.44;29.19;97587.84;4950259;28;20526;-81
2023/07/23 11:11:35;;;;;;;3.07;2.30;;;;;;;28.97;28.77;97586.59;4951737;28;20460;-81
2023/07/23 11:14:03;;;;;;;2.80;2.60;;;;;;;30.16;27.52;97593.88;4950250;28;20461;-81
2023/07/23 11:16:34;;;;;;;2.20;2.00;;;;;;;30.49;26.63;97572.38;4950524;28;20483;-81
2023/07/23 11:19:07;;;;;;;2.20;2.10;;;;;;;30.98;26.69;97580.91;4949946;28;20840;-81
2023/07/23 11:21:34;;;;;;;2.20;2.10;;;;;;;30.49;26.54;97585.53;4955996;28;20470;-81
2023/07/23 11:24:02;;;;;;;2.30;2.20;;;;;;;29.12;28.47;97569.31;4960430;28;20492;-81
2023/07/23 11:26:29;;;;;;;2.60;2.40;;;;;;;28.60;28.93;97574.19;4962822;28;20494;-81
2023/07/23 11:28:56;;;;;;;2.57;2.17;;;;;;;28.74;27.77;97570.06;4961569;28;20586;-80
2023/07/23 11:31:24;;;;;;;2.70;2.50;;;;;;;29.41;26.59;97569.38;4958542;28;20533;-81
2023/07/23 11:33:51;;;;;;;2.50;2.30;;;;;;;28.91;27.67;97560.06;4958555;28;20454;-82
2023/07/23 11:36:19;;;;;;;2.60;2.40;;;;;;;29.16;27.36;97556.34;4956492;28;21023;-82